SLCB/CBB METAR and TAF weather

Enter ICAO airport designator
Station Type Date Time Source
SLCB METAR 2022/12/08 13:00 UTC NOAA

SLCB 081300Z 26003KT 6000 FEW025 BKN200 17/12 Q1026


Station Type Date Time Source
SLCB Decoded METAR 2022/12/08 13:00 UTC NOAA

Cochabamba, Bolivia (SLCB) 17-25S 066-11W 2570M
Dec 08, 2022 - 08:00 AM EST / 2022.12.08 1300 UTC
Wind: from the W (260 degrees) at 3 MPH (3 KT):0
Visibility: 3 mile(s):0
Sky conditions: mostly cloudy
Temperature: 62 F (17 C)
Dew Point: 53 F (12 C)
Relative Humidity: 72%
Pressure (altimeter): 30.30 in. Hg (1026 hPa)
ob: SLCB 081300Z 26003KT 6000 FEW025 BKN200 17/12 Q1026
cycle: 13

Station Type Date Time Source
SLCB TAF 2022/12/08 12:55 UTC NOAA

TAF SLCB 081000Z 0812/0912 00000KT 5000 BR NSC TX24/0819Z TN10/0911Z
BECMG 0813/0815 9999 NSW
BECMG 0816/0818 27010KT SCT030 SCT070
TEMPO 0819/0821 6000 TSRA FEW036CB

Example: see airport list